DW4559 Terryville NY US current weather conditions

sailwx.info

Wind from 187 at 3 knots gusting 10

Air temperature 22.8° C
Dewpoint 3.3° C

Last reported at 2020-Jul-11 04:09 UTC.
Time now 2020-Jul-11 05:16 UTC

Location: N 40°54' W 073°03'.
View on Google Maps.

See reports from other nearby stations

  
Tides and Currents Weather Stations Pressure Air Temp Water Temp Dewpoint Dewpoint Depression Visibility Wind Speed Wind Dir Waves Ship Positions
date/time (UTC)wind fromknots sea level pressurealtimeterstation pressurevisibilityair tempwater tempwave heightnotes
2020-Jul-11 04:09 187 3 gusting 10 22.8
2020-Jul-11 04:04 168 4 gusting 19 22.2
2020-Jul-11 03:59 165 3 gusting 10 22.2
2020-Jul-11 03:54 171 3 gusting 13 22.2
2020-Jul-11 03:49 186 3 gusting 14 22.2
2020-Jul-11 03:44 162 6 gusting 17 22.2
2020-Jul-11 03:39 153 7 gusting 15 22.2
2020-Jul-11 03:34 212 6 gusting 19 22.8
2020-Jul-11 03:29 175 5 gusting 13 22.8
2020-Jul-11 03:24 185 4 gusting 11 22.8
2020-Jul-11 03:19 190 5 gusting 13 22.8
2020-Jul-11 03:14 177 3 gusting 13 22.8
2020-Jul-11 03:09 190 5 gusting 13 22.8
2020-Jul-11 03:04 183 7 gusting 19 22.8
2020-Jul-11 02:59 164 6 gusting 14 22.8
2020-Jul-11 02:54 170 6 gusting 19 22.8
2020-Jul-11 02:49 155 7 gusting 14 22.8
2020-Jul-11 02:44 170 7 gusting 17 22.8
2020-Jul-11 02:39 178 2 gusting 14 22.8
2020-Jul-11 02:34 143 6 gusting 17 22.8
2020-Jul-11 02:29 186 4 gusting 26 22.8
2020-Jul-11 02:24 160 8 gusting 17 22.8
2020-Jul-11 02:19 168 7 gusting 17 22.8
2020-Jul-11 02:14 173 4 gusting 15 22.8
2020-Jul-11 02:09 174 9 gusting 19 22.8
2020-Jul-11 02:04 157 7 gusting 14 22.8
2020-Jul-11 01:59 135 5 gusting 13 22.8
2020-Jul-11 01:54 130 7 gusting 19 22.8
2020-Jul-11 01:49 198 6 gusting 13 22.8
2020-Jul-11 01:44 166 6 gusting 15 22.8
2020-Jul-11 01:39 160 6 gusting 17 22.8
2020-Jul-11 01:34 177 4 gusting 13 22.8
2020-Jul-11 01:29 139 6 gusting 19 22.8
2020-Jul-11 01:24 135 6 gusting 19 22.8
2020-Jul-11 01:19 171 8 gusting 17 23.3
2020-Jul-11 01:14 167 5 gusting 19 23.3
2020-Jul-11 01:09 165 5 gusting 20 23.3
2020-Jul-11 01:04 177 11 gusting 25 23.3
2020-Jul-11 00:59 156 6 gusting 13 23.3
2020-Jul-11 00:54 159 8 gusting 15 23.3
2020-Jul-11 00:49 147 6 gusting 17 23.3
2020-Jul-11 00:44 127 2 gusting 10 23.9
2020-Jul-11 00:39 135 9 gusting 17 23.9
2020-Jul-11 00:34 128 9 gusting 20 23.3
2020-Jul-11 00:29 138 6 gusting 21 23.3
2020-Jul-11 00:24 156 9 gusting 21 23.3
2020-Jul-11 00:19 148 9 gusting 22 23.3
2020-Jul-11 00:14 188 5 gusting 14 23.3
2020-Jul-11 00:09 142 8 gusting 15 23.3
2020-Jul-11 00:04 135 7 gusting 21 23.3
2020-Jul-10 23:59 168 7 gusting 21 23.3
2020-Jul-10 23:54 145 7 gusting 25 23.9
2020-Jul-10 23:49 164 8 gusting 19 23.9
2020-Jul-10 23:44 140 6 gusting 13 23.9
2020-Jul-10 23:39 147 10 gusting 21 23.9
2020-Jul-10 23:34 117 6 gusting 15 23.9
2020-Jul-10 23:29 126 5 gusting 13 23.9
2020-Jul-10 23:24 122 6 gusting 15 23.9
2020-Jul-10 23:19 154 5 gusting 19 23.9
2020-Jul-10 23:14 167 8 gusting 13 23.9
2020-Jul-10 23:09 139 9 gusting 21 23.9
2020-Jul-10 23:04 161 6 gusting 13 23.9
2020-Jul-10 22:59 145 8 gusting 17 23.9
2020-Jul-10 22:54 152 7 gusting 14 23.9
2020-Jul-10 22:49 140 8 gusting 21 23.9
2020-Jul-10 22:44 157 7 gusting 22 23.9
2020-Jul-10 22:39 146 7 gusting 15 23.9
2020-Jul-10 22:34 146 8 gusting 22 23.9
2020-Jul-10 22:29 184 7 gusting 19 24.4
2020-Jul-10 22:24 154 7 gusting 19 23.9
2020-Jul-10 22:19 151 5 gusting 19 24.4
2020-Jul-10 22:14 145 8 gusting 20 24.4
2020-Jul-10 22:09 184 12 gusting 26 24.4
2020-Jul-10 22:04 130 7 gusting 20 24.4
2020-Jul-10 21:59 122 6 gusting 17 24.4
2020-Jul-10 21:54 151 6 gusting 17 24.4
2020-Jul-10 21:49 116 9 gusting 20 24.4
2020-Jul-10 21:44 136 9 gusting 19 24.4
2020-Jul-10 21:39 165 7 gusting 14 24.4
2020-Jul-10 21:34 129 8 gusting 21 24.4
2020-Jul-10 21:29 091 8 gusting 17 24.4
2020-Jul-10 21:24 121 8 gusting 19 24.4
2020-Jul-10 21:19 139 4 gusting 15 24.4
2020-Jul-10 21:14 143 7 gusting 17 24.4
2020-Jul-10 21:09 127 6 gusting 17 24.4
2020-Jul-10 21:04 125 6 gusting 13 24.4
2020-Jul-10 20:59 137 7 gusting 19 23.9
2020-Jul-10 20:54 127 8 gusting 14 23.9
2020-Jul-10 20:49 132 7 gusting 17 23.9
2020-Jul-10 20:44 130 7 gusting 19 23.9
2020-Jul-10 20:39 146 4 gusting 8 23.9
2020-Jul-10 20:34 123 5 gusting 13 23.9
2020-Jul-10 20:29 155 6 gusting 15 23.9
2020-Jul-10 20:24 126 8 gusting 15 23.9
2020-Jul-10 20:19 143 6 gusting 13 24.4
2020-Jul-10 20:14 111 9 gusting 19 24.4
2020-Jul-10 20:09 111 8 gusting 21 25.0
2020-Jul-10 20:04 148 7 gusting 17 25.0
2020-Jul-10 19:59 145 6 gusting 14 25.6
2020-Jul-10 19:54 146 5 gusting 10 25.6
2020-Jul-10 19:49 133 7 gusting 13 25.6
2020-Jul-10 19:44 152 7 gusting 19 25.0
2020-Jul-10 19:39 153 6 gusting 15 25.0
2020-Jul-10 19:34 166 6 gusting 13 25.0
2020-Jul-10 19:29 129 6 gusting 14 24.4
2020-Jul-10 19:24 102 8 gusting 20 24.4
2020-Jul-10 19:19 128 4 gusting 13 24.4
2020-Jul-10 19:14 124 6 gusting 13 24.4
2020-Jul-10 19:09 154 7 gusting 13 24.4
2020-Jul-10 19:04 102 5 gusting 13 24.4
2020-Jul-10 18:59 130 5 gusting 13 24.4
2020-Jul-10 18:54 149 4 gusting 13 24.4
2020-Jul-10 18:49 125 6 gusting 15 24.4
2020-Jul-10 18:44 133 4 gusting 11 24.4
2020-Jul-10 18:39 136 5 gusting 13 24.4
2020-Jul-10 18:34 129 3 gusting 10 24.4
2020-Jul-10 18:29 115 5 gusting 10 24.4
2020-Jul-10 18:24 138 4 gusting 8 24.4
2020-Jul-10 18:19 120 6 gusting 14 23.9
2020-Jul-10 18:14 104 1 gusting 10 23.9
2020-Jul-10 18:09 154 1 gusting 8 24.4
2020-Jul-10 18:04 141 3 gusting 7 23.9
2020-Jul-10 17:59 102 2 gusting 13 23.9
2020-Jul-10 17:54 132 4 gusting 13 23.9
2020-Jul-10 17:49 128 3 gusting 7 23.9
2020-Jul-10 17:44 141 4 gusting 10 23.9
2020-Jul-10 17:39 113 4 gusting 8 23.9
2020-Jul-10 17:34 152 6 gusting 10 23.9
2020-Jul-10 17:29 124 5 gusting 13 23.9
2020-Jul-10 17:24 128 3 gusting 11 23.9
2020-Jul-10 17:19 146 5 gusting 17 23.9
2020-Jul-10 17:14 123 4 gusting 11 23.9
2020-Jul-10 17:09 086 5 gusting 8 23.9
2020-Jul-10 17:04 123 0 gusting 7 24.4
2020-Jul-10 16:59 120 4 gusting 13 24.4
2020-Jul-10 16:54 142 6 gusting 17 24.4
2020-Jul-10 16:49 103 3 gusting 11 24.4
2020-Jul-10 16:44 119 6 gusting 11 24.4
2020-Jul-10 16:39 125 5 gusting 13 24.4
2020-Jul-10 16:34 143 1 gusting 6 25.0
2020-Jul-10 16:29 144 1 gusting 13 25.0
2020-Jul-10 16:24 110 4 gusting 7 25.0
2020-Jul-10 16:19 133 3 gusting 7 25.0
2020-Jul-10 16:14 116 1 gusting 6 25.0
2020-Jul-10 16:09 102 1 gusting 6 25.0
2020-Jul-10 16:04 116 3 gusting 6 25.0
2020-Jul-10 15:59 113 1 gusting 7 25.0
2020-Jul-10 15:54 113 1 gusting 7 25.0
2020-Jul-10 15:49 113 0 gusting 10 25.0
2020-Jul-10 15:44 109 1 gusting 6 25.6
2020-Jul-10 15:39 053 0 gusting 4 25.6
2020-Jul-10 15:34 134 0 gusting 7 25.6
2020-Jul-10 15:29 063 0 gusting 6 26.1
2020-Jul-10 15:24 063 1 gusting 6 26.1
2020-Jul-10 15:19 096 1 gusting 5 26.1
2020-Jul-10 15:14 127 4 gusting 8 26.1
2020-Jul-10 15:09 129 5 gusting 10 26.1
2020-Jul-10 15:04 099 5 gusting 11 26.1
2020-Jul-10 14:59 111 1 gusting 6 26.1
2020-Jul-10 14:54 127 1 gusting 8 26.1
2020-Jul-10 14:49 148 5 gusting 8 26.1
2020-Jul-10 14:44 144 3 gusting 7 26.1
2020-Jul-10 14:39 141 1 gusting 11 26.1
2020-Jul-10 14:34 091 2 gusting 8 26.1
2020-Jul-10 14:29 119 4 gusting 13 26.1
2020-Jul-10 14:24 144 4 gusting 10 26.1
2020-Jul-10 14:19 119 2 gusting 6 26.7
2020-Jul-10 14:14 158 1 gusting 6 26.1
2020-Jul-10 14:09 126 1 gusting 6 26.1
2020-Jul-10 14:04 103 0 gusting 4 26.1
2020-Jul-10 13:59 103 1 gusting 6 25.6
2020-Jul-10 13:54 099 2 gusting 6 25.6
2020-Jul-10 13:49 062 0 gusting 5 25.6
2020-Jul-10 13:44 061 1 gusting 6 25.6
2020-Jul-10 13:39 061 0 gusting 6 25.6
2020-Jul-10 13:34 061 25.6
2020-Jul-10 13:29 074 1 gusting 6 25.6
2020-Jul-10 13:24 047 0 gusting 6 25.6
2020-Jul-10 13:19 140 0 gusting 5 25.6
2020-Jul-10 13:14 118 0 gusting 6 25.6
2020-Jul-10 13:09 148 1 gusting 4 25.0
2020-Jul-10 13:04 123 1 gusting 5 25.0
2020-Jul-10 12:59 123 0 gusting 5 25.0
2020-Jul-10 12:54 123 2 gusting 8 25.0
2020-Jul-10 12:49 103 0 gusting 1 25.0
2020-Jul-10 12:44 102 1 gusting 5 25.0
2020-Jul-10 12:39 041 0 gusting 8 25.0
2020-Jul-10 12:34 074 1 gusting 6 25.0
2020-Jul-10 12:29 083 1 gusting 5 25.0
2020-Jul-10 12:24 069 24.4
2020-Jul-10 12:19 068 1 gusting 8 24.4
2020-Jul-10 12:14 037 0 gusting 2 24.4
2020-Jul-10 12:09 036 0 gusting 5 24.4
2020-Jul-10 12:04 036 0 gusting 5 23.9
2020-Jul-10 11:59 026 23.9
2020-Jul-10 11:54 026 0 gusting 4 23.9
2020-Jul-10 11:49 026 0 gusting 5 23.9
2020-Jul-10 11:44 026 0 gusting 4 23.9
2020-Jul-10 11:39 026 1 gusting 5 23.9
2020-Jul-10 11:34 104 1 gusting 5 23.9
2020-Jul-10 11:29 104 0 gusting 1 23.9
2020-Jul-10 11:24 104 0 gusting 4 23.9
2020-Jul-10 11:19 104 23.9
2020-Jul-10 11:14 104 23.3
2020-Jul-10 11:09 104 23.3
2020-Jul-10 11:04 105 23.3
2020-Jul-10 10:59 108 23.3
2020-Jul-10 10:54 107 23.3
2020-Jul-10 10:49 116 1 gusting 5 23.3
2020-Jul-10 10:44 124 23.3
2020-Jul-10 10:39 125 23.9
2020-Jul-10 10:34 125 0 gusting 4 23.9
2020-Jul-10 10:29 125 23.9
2020-Jul-10 10:24 125 23.9
2020-Jul-10 10:19 125 23.9
2020-Jul-10 10:14 125 23.9
2020-Jul-10 10:09 125 23.9
2020-Jul-10 10:04 125 23.9
2020-Jul-10 09:59 125 23.9
2020-Jul-10 09:54 125 0 gusting 1 23.9
2020-Jul-10 09:49 125 23.9
2020-Jul-10 09:44 125 23.9
2020-Jul-10 09:39 125 23.9
2020-Jul-10 09:34 125 23.9
2020-Jul-10 09:29 146 23.9
2020-Jul-10 09:24 146 23.9
2020-Jul-10 09:19 146 23.9
2020-Jul-10 09:14 146 23.9
2020-Jul-10 09:09 146 23.9
2020-Jul-10 09:04 146 23.9
2020-Jul-10 08:59 146 23.9
2020-Jul-10 08:54 146 23.9
2020-Jul-10 08:49 145 23.9
2020-Jul-10 08:44 146 23.9
2020-Jul-10 08:39 146 23.9
2020-Jul-10 08:34 145 23.9
2020-Jul-10 08:29 146 23.9
2020-Jul-10 08:24 146 23.9
2020-Jul-10 08:19 146 23.9
2020-Jul-10 08:14 146 23.9
2020-Jul-10 08:09 146 23.9
2020-Jul-10 08:04 146 23.9
2020-Jul-10 07:59 146 23.9
2020-Jul-10 07:54 146 23.9
2020-Jul-10 07:49 146 23.9
2020-Jul-10 07:44 146 23.9
2020-Jul-10 07:39 145 23.9
2020-Jul-10 07:34 146 23.9
2020-Jul-10 07:29 146 23.9
2020-Jul-10 07:24 146 0 gusting 1 23.9
2020-Jul-10 07:19 146 23.9
2020-Jul-10 07:14 146 23.9
2020-Jul-10 07:09 146 23.9
2020-Jul-10 07:04 146 0 gusting 2 23.9
2020-Jul-10 06:59 145 1 gusting 4 23.9
2020-Jul-10 06:54 146 23.9
2020-Jul-10 06:49 146 23.9
2020-Jul-10 06:44 146 0 gusting 1 23.9
2020-Jul-10 06:39 146 0 gusting 1 23.9
2020-Jul-10 06:34 146 0 gusting 4 23.9
2020-Jul-10 06:29 149 1 gusting 6 23.9
2020-Jul-10 06:24 153 1 gusting 4 23.9
2020-Jul-10 06:19 153 23.9
2020-Jul-10 06:14 153 1 gusting 4 23.9
2020-Jul-10 06:09 153 23.3
2020-Jul-10 06:04 153 0 gusting 1 23.9
2020-Jul-10 05:59 153 0 gusting 5 23.9
2020-Jul-10 05:54 153 23.3
2020-Jul-10 05:49 153 23.3
2020-Jul-10 05:44 153 1 gusting 5 23.3
2020-Jul-10 05:39 165 1 gusting 6 23.3
2020-Jul-10 05:34 165 0 gusting 4 23.3
2020-Jul-10 05:29 165 1 gusting 6 23.3
2020-Jul-10 05:24 165 0 gusting 5 23.3
2020-Jul-10 05:19 166 0 gusting 4 23.3
2020-Jul-10 05:14 165 23.3
2020-Jul-10 05:09 165 23.3
2020-Jul-10 05:04 165 23.3
2020-Jul-10 04:59 165 1 gusting 4 23.3
2020-Jul-10 04:54 165 23.3
2020-Jul-10 04:49 165 23.3
2020-Jul-10 04:44 165 23.3
2020-Jul-10 04:39 165 23.3
2020-Jul-10 04:34 165 0 gusting 5 23.3
2020-Jul-10 04:29 165 0 gusting 4 23.3
2020-Jul-10 04:24 165 1 gusting 4 23.3
2020-Jul-10 04:19 165 23.3
2020-Jul-10 04:14 165 23.3
2020-Jul-10 04:09 165 0 gusting 5 23.3
2020-Jul-10 04:04 165 0 gusting 4 23.3
2020-Jul-10 03:59 165 23.3
2020-Jul-10 03:54 165 0 gusting 1 23.3
2020-Jul-10 03:49 165 23.3
2020-Jul-10 03:44 165 23.3
2020-Jul-10 03:39 165 0 gusting 2 23.3
2020-Jul-10 03:34 165 23.3
2020-Jul-10 03:29 166 23.3
2020-Jul-10 03:24 165 23.3
2020-Jul-10 03:19 165 23.3
2020-Jul-10 03:14 165 23.3
2020-Jul-10 03:09 165 23.3
2020-Jul-10 03:04 165 23.3
2020-Jul-10 02:59 165 23.3
2020-Jul-10 02:54 165 23.9
2020-Jul-10 02:49 165 23.9
2020-Jul-10 02:44 165 23.9
2020-Jul-10 02:39 165 23.9
2020-Jul-10 02:34 165 23.9
2020-Jul-10 02:29 165 23.9
2020-Jul-10 02:24 165 23.9
2020-Jul-10 02:19 165 23.9
2020-Jul-10 02:14 165 23.9
2020-Jul-10 02:09 165 23.9
2020-Jul-10 02:04 165 23.9
2020-Jul-10 01:59 165 23.9
2020-Jul-10 01:54 165 23.9
2020-Jul-10 01:49 165 24.4
2020-Jul-10 01:44 165 24.4
2020-Jul-10 01:39 165 24.4
2020-Jul-10 01:34 165 24.4
2020-Jul-10 01:29 165 24.4
2020-Jul-10 01:24 165 24.4
2020-Jul-10 01:19 165 24.4
2020-Jul-10 01:14 165 25.0
2020-Jul-10 01:09 165 25.0
2020-Jul-10 01:04 165 25.0
2020-Jul-10 00:59 165 25.0
2020-Jul-10 00:54 165 0 gusting 1 25.0
2020-Jul-10 00:49 165 25.0
2020-Jul-10 00:44 165 25.6
2020-Jul-10 00:39 165 25.6
2020-Jul-10 00:34 165 25.6
2020-Jul-10 00:19 165 0 gusting 1 26.1
2020-Jul-10 00:14 165 26.1
2020-Jul-10 00:09 165 26.1
2020-Jul-10 00:04 165 0 gusting 5 26.1
2020-Jul-09 23:59 169 0 gusting 5 26.1
2020-Jul-09 23:54 169 26.1
2020-Jul-09 23:49 169 1 gusting 5 26.1
2020-Jul-09 23:44 169 1 gusting 5 26.7
2020-Jul-09 23:39 171 0 gusting 5 26.7
2020-Jul-09 23:34 173 0 gusting 4 26.7
2020-Jul-09 23:29 173 26.7
2020-Jul-09 23:24 173 26.7
2020-Jul-09 23:19 173 26.7
2020-Jul-09 23:14 179 1 gusting 6 26.7
2020-Jul-09 23:09 152 2 gusting 6 27.2
2020-Jul-09 23:04 152 0 gusting 6 27.2
2020-Jul-09 22:59 152 2 gusting 7 27.2
2020-Jul-09 22:54 206 1 gusting 6 27.8
2020-Jul-09 22:49 171 27.8
2020-Jul-09 22:44 171 27.8
2020-Jul-09 22:39 144 28.3
2020-Jul-09 22:34 144 0 gusting 6 28.3
2020-Jul-09 22:29 145 0 gusting 4 28.3
2020-Jul-09 22:24 142 1 gusting 7 28.3
2020-Jul-09 22:19 168 1 gusting 7 28.3
2020-Jul-09 22:14 159 2 gusting 7 28.9
2020-Jul-09 22:09 163 0 gusting 6 28.9
2020-Jul-09 22:04 187 1 gusting 7 29.4
2020-Jul-09 21:59 192 29.4
2020-Jul-09 21:54 147 0 gusting 6 29.4
2020-Jul-09 21:49 221 29.4
2020-Jul-09 21:44 233 0 gusting 5 29.4
2020-Jul-09 21:39 260 0 gusting 6 29.4
2020-Jul-09 21:34 310 1 gusting 8 29.4
2020-Jul-09 21:29 163 4 gusting 6 29.4
2020-Jul-09 21:24 140 3 gusting 10 29.4
2020-Jul-09 21:19 161 3 gusting 6 30.0
2020-Jul-09 21:14 133 0 gusting 6 30.0
2020-Jul-09 21:09 133 0 gusting 4 30.0
2020-Jul-09 21:04 132 2 gusting 7 30.0
2020-Jul-09 20:59 176 1 gusting 6 30.0
2020-Jul-09 20:54 212 2 gusting 7 30.0
2020-Jul-09 20:49 140 2 gusting 7 30.6
2020-Jul-09 20:44 152 3 gusting 7 30.6
2020-Jul-09 20:39 179 1 gusting 6 30.0
2020-Jul-09 20:34 168 4 gusting 6 30.6
2020-Jul-09 20:29 194 1 gusting 8 30.6
2020-Jul-09 20:24 148 1 gusting 6 30.6
2020-Jul-09 20:19 141 3 gusting 8 30.6
2020-Jul-09 20:14 133 1 gusting 8 30.6
2020-Jul-09 20:09 162 1 gusting 6 31.1
2020-Jul-09 20:04 161 0 gusting 6 31.1
2020-Jul-09 19:59 169 1 gusting 6 30.6
2020-Jul-09 19:54 237 0 gusting 6 31.1
2020-Jul-09 19:49 138 2 gusting 6 30.6
2020-Jul-09 19:44 145 2 gusting 7 31.1
2020-Jul-09 19:39 144 0 gusting 7 31.1
2020-Jul-09 19:34 143 1 gusting 6 31.1
2020-Jul-09 19:29 163 4 gusting 11 31.1
2020-Jul-09 19:24 159 2 gusting 6 31.1
2020-Jul-09 19:19 159 1 gusting 6 31.7
2020-Jul-09 19:14 148 0 gusting 6 31.1
2020-Jul-09 19:09 159 1 gusting 8 31.1
2020-Jul-09 19:04 151 2 gusting 7 31.1
2020-Jul-09 18:59 157 2 gusting 5 31.1
2020-Jul-09 18:54 159 3 gusting 8 31.7
2020-Jul-09 18:49 145 2 gusting 8 31.1
2020-Jul-09 18:44 208 0 gusting 11 31.1
2020-Jul-09 18:39 157 2 gusting 11 31.7
2020-Jul-09 18:34 166 1 gusting 6 31.7
2020-Jul-09 18:29 215 2 gusting 7 31.7
2020-Jul-09 18:24 134 1 gusting 5 31.7
2020-Jul-09 18:19 133 2 gusting 6 31.1
2020-Jul-09 18:14 147 2 gusting 10 31.1
2020-Jul-09 18:09 153 3 gusting 8 31.7
2020-Jul-09 18:04 129 2 gusting 13 31.7
2020-Jul-09 17:59 270 0 gusting 6 31.7
2020-Jul-09 17:54 249 2 gusting 7 31.7
2020-Jul-09 17:49 169 31.1
2020-Jul-09 17:44 151 3 gusting 8 31.1
2020-Jul-09 17:39 142 0 gusting 6 31.1
2020-Jul-09 17:34 146 2 gusting 10 31.1
2020-Jul-09 17:29 225 1 gusting 5 31.7
2020-Jul-09 17:24 163 1 gusting 6 31.7
2020-Jul-09 17:19 106 0 gusting 7 31.7
2020-Jul-09 17:14 275 1 gusting 4 32.2
2020-Jul-09 17:09 296 2 gusting 6 32.2
2020-Jul-09 17:04 159 1 gusting 4 32.2
2020-Jul-09 16:59 159 31.7
2020-Jul-09 16:54 159 0 gusting 5 31.7
2020-Jul-09 16:49 158 1 gusting 5 31.7
2020-Jul-09 16:44 158 0 gusting 4 31.7
2020-Jul-09 16:39 158 0 gusting 10 31.7
2020-Jul-09 16:34 186 31.7
2020-Jul-09 16:29 184 0 gusting 5 31.7
2020-Jul-09 16:24 182 1 gusting 5 31.7
2020-Jul-09 16:19 215 2 gusting 5 31.7
2020-Jul-09 16:14 299 0 gusting 6 31.7
2020-Jul-09 16:09 215 0 gusting 5 31.7
2020-Jul-09 16:04 218 1 gusting 6 31.1
2020-Jul-09 15:59 172 0 gusting 4 31.1
2020-Jul-09 15:54 172 0 gusting 1 30.6
2020-Jul-09 15:49 172 0 gusting 6 30.6
2020-Jul-09 15:44 293 3 gusting 10 30.6
2020-Jul-09 15:39 184 0 gusting 2 31.1
2020-Jul-09 15:34 179 31.1
2020-Jul-09 15:29 179 1 gusting 6 31.1
2020-Jul-09 15:24 123 3 gusting 10 31.1
2020-Jul-09 15:19 163 1 gusting 6 31.1
2020-Jul-09 15:14 148 1 gusting 7 31.1
2020-Jul-09 15:09 143 1 gusting 10 31.1
2020-Jul-09 15:04 178 4 gusting 8 31.1
2020-Jul-09 14:59 232 0 gusting 5 30.6
2020-Jul-09 14:54 232 30.6
2020-Jul-09 14:49 232 0 gusting 5 30.0
2020-Jul-09 14:44 229 0 gusting 5 30.0
2020-Jul-09 14:39 296 30.6
2020-Jul-09 14:34 234 30.0
2020-Jul-09 14:29 222 0 gusting 4 30.0
2020-Jul-09 14:24 222 0 gusting 4 30.6
2020-Jul-09 14:19 221 0 gusting 4 31.1
2020-Jul-09 14:14 220 1 gusting 5 31.1
2020-Jul-09 14:09 162 0 gusting 4 31.1
2020-Jul-09 14:04 180 31.1
2020-Jul-09 13:59 180 1 gusting 6 30.6
2020-Jul-09 13:54 178 30.6
2020-Jul-09 13:49 178 30.6
2020-Jul-09 13:44 178 2 gusting 5 30.0
2020-Jul-09 13:39 178 30.0
2020-Jul-09 13:34 266 0 gusting 4 30.0
2020-Jul-09 13:29 266 30.0
2020-Jul-09 13:24 266 0 gusting 1 29.4
2020-Jul-09 13:19 266 28.9
2020-Jul-09 13:14 263 1 gusting 5 28.9
2020-Jul-09 13:09 288 0 gusting 4 28.9
2020-Jul-09 13:04 289 0 gusting 6 28.9
2020-Jul-09 12:59 304 0 gusting 6 28.9
2020-Jul-09 12:54 317 0 gusting 4 28.9
2020-Jul-09 12:49 322 28.3
2020-Jul-09 12:44 342 28.3
2020-Jul-09 12:39 342 0 gusting 1 27.8
2020-Jul-09 12:34 342 0 gusting 5 27.8
2020-Jul-09 12:29 341 0 gusting 4 27.2
2020-Jul-09 12:24 342 1 gusting 6 27.2
2020-Jul-09 12:19 054 27.2
2020-Jul-09 12:14 328 26.7
2020-Jul-09 12:09 328 26.7
2020-Jul-09 12:04 327 26.7
2020-Jul-09 11:59 231 26.1
2020-Jul-09 11:54 231 25.6
2020-Jul-09 11:49 231 25.6
2020-Jul-09 11:44 231 25.0
2020-Jul-09 11:39 231 25.0
2020-Jul-09 11:34 230 24.4
2020-Jul-09 11:29 170 24.4
2020-Jul-09 11:24 170 24.4
2020-Jul-09 11:19 160 24.4
2020-Jul-09 11:14 158 24.4
2020-Jul-09 11:09 200 23.9
2020-Jul-09 11:04 200 23.9
2020-Jul-09 10:59 200 23.9
2020-Jul-09 10:54 200 23.3
2020-Jul-09 10:49 200 23.3
2020-Jul-09 10:44 200 23.3
2020-Jul-09 10:39 200 23.3
2020-Jul-09 10:34 200 22.8
2020-Jul-09 10:29 200 22.8
2020-Jul-09 10:24 200 22.8
2020-Jul-09 10:19 200 22.8
2020-Jul-09 10:14 200 22.8
2020-Jul-09 10:09 200 22.2
2020-Jul-09 10:04 169 22.2
2020-Jul-09 09:59 169 22.2
2020-Jul-09 09:54 169 22.2
2020-Jul-09 09:49 169 22.2
2020-Jul-09 09:44 169 22.8
2020-Jul-09 09:39 169 22.8
2020-Jul-09 09:34 169 22.2
2020-Jul-09 09:29 169 22.2
2020-Jul-09 09:24 169 22.8
2020-Jul-09 09:19 169 22.8
2020-Jul-09 09:14 169 22.8
2020-Jul-09 09:09 169 22.2
2020-Jul-09 09:04 169 22.8
2020-Jul-09 08:59 169 22.8
2020-Jul-09 08:54 169 22.8
2020-Jul-09 08:49 169 22.8
2020-Jul-09 08:44 169 22.8
2020-Jul-09 08:39 169 22.8
2020-Jul-09 08:34 169 22.8
2020-Jul-09 08:29 169 22.8
2020-Jul-09 08:24 169 22.8
2020-Jul-09 08:19 169 22.8
2020-Jul-09 08:14 169 22.8
2020-Jul-09 08:09 169 22.8
2020-Jul-09 08:04 169 22.8
2020-Jul-09 07:59 169 22.8
2020-Jul-09 07:54 169 22.8
2020-Jul-09 07:49 169 22.8
2020-Jul-09 07:44 169 22.8
2020-Jul-09 07:39 169 23.3
2020-Jul-09 07:34 169 23.3
2020-Jul-09 07:29 169 23.3
2020-Jul-09 07:24 169 23.3
2020-Jul-09 07:19 169 23.3
2020-Jul-09 07:14 169 23.3
2020-Jul-09 07:09 169 23.3
2020-Jul-09 07:04 169 23.3
2020-Jul-09 06:59 169 23.3
2020-Jul-09 06:54 169 23.3
2020-Jul-09 06:49 169 23.3
2020-Jul-09 06:44 169 23.3
2020-Jul-09 06:39 169 23.3
2020-Jul-09 06:34 169 23.3
2020-Jul-09 06:29 169 23.3
2020-Jul-09 06:24 169 23.3
2020-Jul-09 06:19 169 23.3
2020-Jul-09 06:14 169 23.3
2020-Jul-09 06:09 169 23.3
2020-Jul-09 06:04 169 23.9
2020-Jul-09 05:59 169 23.9
2020-Jul-09 05:54 169 23.9
2020-Jul-09 05:49 169 23.9
2020-Jul-09 05:44 169 23.9
2020-Jul-09 05:39 169 23.9
2020-Jul-09 05:34 169 23.9
2020-Jul-09 05:29 169 23.9
2020-Jul-09 05:24 169 23.9
2020-Jul-09 05:19 168 23.9
2020-Jul-09 05:14 168 23.9
2020-Jul-09 05:09 168 0 gusting 1 23.9
2020-Jul-09 05:04 168 23.9